Time;durP1;ratioP1;P1;durP2;ratioP2;P2;SDS_P1;SDS_P2;PMS_P1;PMS_P2;Temp;Humidity;BMP_temperature;BMP_pressure;BME280_temperature;BME280_humidity;BME280_pressure;Samples;Min_cycle;Max_cycle;Signal;HPM_P1;HPM_P2
2022/07/18 00:02:45;;;;;;;0.10;0.10;;;21.10;99.90;22.10;102352.00;;;;5035619;28;20650;-63
2022/07/18 00:06:03;;;;;;;0.10;0.10;;;20.90;99.90;22.20;102357.00;;;;5035763;28;20194;-63
2022/07/18 00:08:54;;;;;;;0.10;0.10;;;20.90;99.90;22.20;102367.00;;;;5034322;28;20276;-63
2022/07/18 00:12:18;;;;;;;0.10;0.10;;;20.80;99.90;22.30;102368.00;;;;5035675;28;20229;-63
2022/07/18 00:15:41;;;;;;;0.43;0.43;;;21.00;99.90;22.20;102355.00;;;;5035625;28;20208;-63
2022/07/18 00:19:02;;;;;;;0.10;0.10;;;20.80;99.90;22.20;102343.00;;;;5034827;28;20231;-63
2022/07/18 00:22:27;;;;;;;0.20;0.20;;;20.90;99.90;21.90;102341.00;;;;5060399;28;20219;-63
2022/07/18 00:25:45;;;;;;;0.10;0.10;;;20.70;99.90;21.60;102344.00;;;;5055563;28;20173;-63
2022/07/18 00:28:53;;;;;;;0.10;0.10;;;20.50;99.90;21.80;102335.00;;;;5070474;28;20188;-63
2022/07/18 00:31:54;;;;;;;0.10;0.10;;;20.50;99.90;22.10;102346.00;;;;5070303;28;20714;-63
2022/07/18 00:35:03;;;;;;;0.10;0.10;;;20.60;99.90;22.20;102336.00;;;;5054025;28;20177;-62
2022/07/18 00:38:06;;;;;;;0.10;0.10;;;20.90;99.90;22.00;102341.00;;;;5054621;28;20292;-63
2022/07/18 00:41:17;;;;;;;0.10;0.10;;;20.80;99.90;22.20;102341.00;;;;5070602;28;20191;-63
2022/07/18 00:44:16;;;;;;;0.10;0.10;;;20.70;99.90;21.90;102344.00;;;;5070299;28;20187;-63
2022/07/18 00:47:46;;;;;;;0.10;0.10;;;20.60;99.90;21.70;102332.00;;;;5055020;28;20171;-63
2022/07/18 00:50:47;;;;;;;0.10;0.10;;;20.50;99.90;21.80;102333.00;;;;5054680;28;20185;-63
2022/07/18 00:53:56;;;;;;;0.30;0.30;;;20.50;99.90;21.40;102323.00;;;;5054625;28;20686;-62
2022/07/18 00:57:14;;;;;;;0.10;0.10;;;20.30;99.90;21.60;102318.00;;;;5054201;28;20223;-63
2022/07/18 01:03:53;;;;;;;0.10;0.10;;;20.20;99.90;21.70;102326.00;;;;5054497;28;20275;-62
2022/07/18 01:07:14;;;;;;;0.33;0.33;;;20.30;99.90;21.50;102315.00;;;;5053333;28;20178;-62
2022/07/18 01:10:32;;;;;;;0.10;0.10;;;20.40;99.90;21.40;102303.00;;;;5054614;28;20531;-63
2022/07/18 01:13:35;;;;;;;0.10;0.10;;;20.30;99.90;21.40;102304.00;;;;5054312;28;20204;-63
2022/07/18 01:16:39;;;;;;;0.20;0.20;;;20.10;99.90;21.30;102304.00;;;;5069462;28;20633;-63
2022/07/18 01:19:25;;;;;;;0.10;0.10;;;20.00;99.90;21.10;102297.00;;;;5086495;28;20211;-63
2022/07/18 01:22:43;;;;;;;0.10;0.10;;;20.00;99.90;21.40;102312.00;;;;5069798;28;20181;-63
2022/07/18 01:25:47;;;;;;;0.10;0.10;;;19.90;99.90;21.20;102270.00;;;;5069633;28;20267;-63
2022/07/18 01:29:06;;;;;;;0.77;0.77;;;20.00;99.90;21.10;102306.00;;;;5069197;28;20171;-63
2022/07/18 01:32:08;;;;;;;0.10;0.10;;;19.90;99.90;20.90;102304.00;;;;5053812;28;20647;-63
2022/07/18 01:35:29;;;;;;;0.10;0.10;;;19.80;99.90;20.90;102301.00;;;;5054026;28;20182;-62
2022/07/18 01:38:51;;;;;;;0.10;0.10;;;19.80;99.90;20.80;102296.00;;;;5053872;28;20573;-63
2022/07/18 01:42:10;;;;;;;0.10;0.10;;;19.50;99.90;20.90;102301.00;;;;5053704;28;20176;-63
2022/07/18 01:45:16;;;;;;;0.10;0.10;;;19.60;99.90;20.80;102304.00;;;;5086478;28;20180;-62
2022/07/18 01:48:40;;;;;;;0.20;0.20;;;19.60;99.90;20.90;102303.00;;;;5069600;28;20188;-63
2022/07/18 01:52:07;;;;;;;0.10;0.10;;;19.60;99.90;21.30;102302.00;;;;5053786;28;20643;-62
2022/07/18 01:58:50;;;;;;;0.10;0.10;;;19.80;99.90;20.80;102300.00;;;;5066275;28;20214;-62
2022/07/18 02:02:08;;;;;;;0.10;0.10;;;19.60;99.90;20.10;102245.00;;;;5069308;28;20538;-62
2022/07/18 02:05:16;;;;;;;0.10;0.10;;;19.40;99.90;20.10;102234.00;;;;5053242;28;20179;-62
2022/07/18 02:08:17;;;;;;;0.60;0.60;;;19.10;99.90;20.80;102270.00;;;;5069003;28;20182;-62
2022/07/18 02:11:18;;;;;;;0.10;0.10;;;19.40;99.90;20.70;102272.00;;;;5052530;28;20227;-62
2022/07/18 02:14:37;;;;;;;0.10;0.10;;;19.50;99.90;20.80;102266.00;;;;5053843;28;20202;-62
2022/07/18 02:17:41;;;;;;;0.10;0.10;;;19.50;99.90;20.90;102245.00;;;;5069062;28;20240;-62
2022/07/18 02:21:03;;;;;;;0.10;0.10;;;19.50;99.90;20.70;102265.00;;;;5053421;28;20266;-63
2022/07/18 02:24:06;;;;;;;0.10;0.10;;;19.50;99.90;20.90;102273.00;;;;5068845;28;20190;-62
2022/07/18 02:27:27;;;;;;;0.10;0.10;;;19.40;99.90;20.80;102271.00;;;;5053394;28;20203;-62
2022/07/18 02:30:48;;;;;;;0.10;0.10;;;19.40;99.90;21.00;102262.00;;;;5062725;28;20230;-62
2022/07/18 02:33:51;;;;;;;0.10;0.10;;;19.50;99.90;21.00;102260.00;;;;5068535;28;20231;-62
2022/07/18 02:36:52;;;;;;;0.10;0.10;;;19.60;99.90;20.90;102248.00;;;;5052872;28;20183;-62
2022/07/18 02:40:01;;;;;;;0.10;0.10;;;19.50;99.90;20.90;102258.00;;;;5068496;28;20177;-62
2022/07/18 02:43:25;;;;;;;0.10;0.10;;;19.60;99.90;20.80;102219.00;;;;5068645;28;20191;-62
2022/07/18 02:46:42;;;;;;;0.40;0.40;;;19.30;99.90;20.60;102242.00;;;;5053140;28;20186;-62
2022/07/18 02:50:00;;;;;;;0.17;0.17;;;19.30;99.90;20.20;102230.00;;;;5068729;28;20313;-62
2022/07/18 02:53:27;;;;;;;0.20;0.20;;;19.20;99.90;20.30;102228.00;;;;5052812;28;20347;-62
2022/07/18 02:56:53;;;;;;;0.10;0.10;;;18.90;99.90;20.20;102230.00;;;;5053143;28;20181;-62
2022/07/18 03:00:12;;;;;;;0.10;0.10;;;19.00;99.90;20.50;102234.00;;;;5052828;28;20184;-62
2022/07/18 03:03:22;;;;;;;0.10;0.10;;;19.00;99.90;20.30;102196.00;;;;5051180;28;20193;-62
2022/07/18 03:06:40;;;;;;;0.23;0.23;;;19.10;99.90;20.00;102225.00;;;;5052835;28;20200;-62
2022/07/18 03:10:02;;;;;;;0.57;0.57;;;19.00;99.90;19.80;102214.00;;;;5068844;28;20270;-62
2022/07/18 03:13:31;;;;;;;0.23;0.23;;;18.80;99.90;20.10;102214.00;;;;5068133;28;20211;-62
2022/07/18 03:16:39;;;;;;;0.10;0.10;;;18.80;99.90;19.40;102216.00;;;;5052360;28;20240;-62
2022/07/18 03:19:50;;;;;;;0.10;0.10;;;18.60;99.90;19.50;102209.00;;;;5055205;28;20182;-62
2022/07/18 03:22:58;;;;;;;0.30;0.30;;;18.50;99.90;19.70;102213.00;;;;5056265;28;20559;-62
2022/07/18 03:26:16;;;;;;;0.10;0.10;;;18.60;99.90;19.90;102219.00;;;;5071956;28;20170;-62
2022/07/18 03:29:34;;;;;;;0.10;0.10;;;18.60;99.90;19.90;102225.00;;;;5072014;28;20525;-62
2022/07/18 03:32:53;;;;;;;0.10;0.10;;;18.70;99.90;19.80;102211.00;;;;5071226;28;20554;-62
2022/07/18 03:36:03;;;;;;;0.23;0.23;;;18.70;99.90;19.70;102206.00;;;;5056406;28;20181;-62
2022/07/18 03:39:09;;;;;;;0.20;0.20;;;18.60;99.90;20.10;102212.00;;;;5055177;28;20644;-62
2022/07/18 03:42:28;;;;;;;0.53;0.53;;;18.90;99.90;20.10;102207.00;;;;5056284;28;20179;-62
2022/07/18 03:49:30;;;;;;;0.10;0.10;;;18.70;99.90;19.60;102193.00;;;;5068678;28;20541;-62
2022/07/18 03:52:48;;;;;;;1.00;0.50;;;18.60;99.90;19.30;102175.00;;;;5037626;28;20245;-62
2022/07/18 03:56:12;;;;;;;0.53;0.53;;;18.40;99.90;19.40;102171.00;;;;5034702;28;20260;-62
2022/07/18 03:59:30;;;;;;;0.30;0.30;;;18.40;99.90;19.70;102176.00;;;;5034675;28;20154;-62
2022/07/18 04:02:39;;;;;;;0.50;0.50;;;18.40;99.90;19.50;102178.00;;;;5035482;28;20251;-62
2022/07/18 04:05:59;;;;;;;0.30;0.30;;;18.50;99.90;19.40;102173.00;;;;5034962;28;20204;-62
2022/07/18 04:09:26;;;;;;;0.10;0.10;;;18.50;99.90;19.70;102173.00;;;;5035692;28;20207;-62
2022/07/18 04:12:47;;;;;;;0.70;0.70;;;18.50;99.90;19.30;102163.00;;;;5035540;28;20666;-62
2022/07/18 04:16:06;;;;;;;0.40;0.30;;;18.50;99.90;19.70;102158.00;;;;5034542;28;20187;-62
2022/07/18 04:19:25;;;;;;;0.17;0.17;;;18.50;99.90;19.50;102150.00;;;;5033592;28;20202;-62
2022/07/18 04:26:39;;;;;;;0.27;0.27;;;18.50;99.90;19.50;102149.00;;;;5032793;28;20251;-62
2022/07/18 04:29:43;;;;;;;0.70;0.70;;;18.50;99.90;19.80;102151.00;;;;5035213;28;20203;-62
2022/07/18 04:33:02;;;;;;;0.83;0.83;;;18.60;99.90;19.80;102149.00;;;;5034774;28;20241;-62
2022/07/18 04:36:18;;;;;;;2.43;2.23;;;18.70;99.90;19.80;102147.00;;;;5035285;28;20546;-62
2022/07/18 04:39:39;;;;;;;0.33;0.33;;;18.70;99.90;19.80;102152.00;;;;5033933;28;20178;-62
2022/07/18 04:43:05;;;;;;;1.00;1.00;;;18.90;99.90;20.40;102146.00;;;;5034355;28;20236;-61
2022/07/18 04:46:25;;;;;;;0.50;0.50;;;19.10;99.90;21.30;102175.00;;;;5033914;28;20552;-62
2022/07/18 04:49:33;;;;;;;0.60;0.60;;;19.80;99.90;22.00;102154.00;;;;5035010;28;20230;-62
2022/07/18 04:52:52;;;;;;;0.10;0.10;;;20.50;99.90;22.70;102186.00;;;;5034976;28;20214;-62
2022/07/18 04:56:13;;;;;;;0.20;0.20;;;21.00;99.90;22.90;102191.00;;;;5033560;28;20546;-63
2022/07/18 04:59:36;;;;;;;0.10;0.10;;;21.50;99.90;23.20;102200.00;;;;5034954;28;20183;-63
2022/07/18 05:02:58;;;;;;;0.13;0.13;;;21.70;99.90;23.50;102202.00;;;;5034995;28;20246;-63
2022/07/18 05:06:17;;;;;;;0.10;0.10;;;22.20;99.90;24.60;102200.00;;;;5035015;28;20179;-63
2022/07/18 05:13:11;;;;;;;0.10;0.10;;;23.80;99.90;26.80;102207.00;;;;5033277;28;20207;-63
2022/07/18 05:16:42;;;;;;;0.10;0.10;;;24.50;99.90;28.30;102196.00;;;;5033570;28;20650;-63
2022/07/18 05:19:53;;;;;;;0.10;0.10;;;25.80;99.90;28.90;102191.00;;;;5050019;28;20502;-63
2022/07/18 05:23:12;;;;;;;0.10;0.10;;;26.90;99.90;29.20;102189.00;;;;5034328;28;20179;-63
2022/07/18 05:26:35;;;;;;;0.20;0.20;;;27.40;99.90;29.80;102187.00;;;;5033282;28;20202;-63
2022/07/18 05:29:54;;;;;;;0.10;0.10;;;27.80;99.70;31.00;102180.00;;;;5049403;28;20179;-63
2022/07/18 05:33:12;;;;;;;0.10;0.10;;;28.70;98.80;31.30;102191.00;;;;5034024;28;20268;-63
2022/07/18 05:36:18;;;;;;;0.10;0.10;;;29.20;97.40;31.80;102187.00;;;;5033002;28;20179;-63
2022/07/18 05:39:36;;;;;;;0.10;0.10;;;29.90;95.70;30.40;102194.00;;;;5032553;28;20273;-63
2022/07/18 05:42:45;;;;;;;0.10;0.10;;;29.20;95.10;30.20;102206.00;;;;5032070;28;20539;-62
2022/07/18 05:45:54;;;;;;;0.10;0.10;;;28.70;95.80;31.30;102194.00;;;;5032771;28;20226;-63
2022/07/18 05:49:12;;;;;;;0.10;0.10;;;29.10;95.90;31.80;102166.00;;;;5033718;28;20170;-63
2022/07/18 05:52:30;;;;;;;0.05;0.05;;;29.60;94.60;31.00;102195.00;;;;5032880;28;20240;-63
2022/07/18 05:55:51;;;;;;;0.10;0.10;;;29.50;94.40;33.00;102195.00;;;;5032251;28;20428;-63
2022/07/18 05:59:12;;;;;;;0.10;0.10;;;30.50;94.50;32.80;102197.00;;;;5032448;28;20179;-63
2022/07/18 06:02:30;;;;;;;0.40;0.40;;;30.70;93.20;32.60;102205.00;;;;5033619;28;20201;-63
2022/07/18 06:05:55;;;;;;;0.10;0.10;;;30.60;92.90;32.90;102201.00;;;;5033613;28;20183;-63
2022/07/18 06:09:13;;;;;;;2.17;0.50;;;31.00;91.30;33.80;102191.00;;;;5033354;28;20460;-63
2022/07/18 06:12:30;;;;;;;0.10;0.10;;;31.70;91.20;33.60;102198.00;;;;5033241;28;20182;-64
2022/07/18 06:15:49;;;;;;;1.65;1.58;;;31.90;90.30;34.30;102195.00;;;;5033730;28;20183;-63
2022/07/18 06:19:08;;;;;;;0.10;0.10;;;32.30;90.30;34.40;102179.00;;;;5033744;28;20179;-63
2022/07/18 06:22:11;;;;;;;0.10;0.10;;;32.50;89.20;30.90;102207.00;;;;5032141;28;20202;-63
2022/07/18 06:25:33;;;;;;;0.10;0.10;;;30.90;84.90;32.60;102199.00;;;;5048509;28;20186;-63
2022/07/18 06:28:51;;;;;;;0.10;0.10;;;30.70;87.10;31.60;102215.00;;;;5032170;28;20186;-63
2022/07/18 06:32:12;;;;;;;0.10;0.10;;;30.60;86.40;33.60;102190.00;;;;5033124;28;20299;-64
2022/07/18 06:35:37;;;;;;;0.10;0.10;;;31.30;85.50;34.90;102158.00;;;;5033405;28;20179;-63
2022/07/18 06:38:41;;;;;;;0.10;0.10;;;32.50;86.40;31.80;102204.00;;;;5033435;28;20179;-63
2022/07/18 06:41:59;;;;;;;0.55;0.55;;;31.70;82.20;31.90;102203.00;;;;5033315;28;20178;-63
2022/07/18 06:45:19;;;;;;;0.20;0.20;;;32.10;82.10;30.20;102208.00;;;;5033095;28;20183;-63
2022/07/18 06:48:23;;;;;;;0.10;0.10;;;29.50;84.20;32.30;102193.00;;;;5033187;28;20183;-63
2022/07/18 06:51:42;;;;;;;0.08;0.08;;;30.20;84.30;34.40;102161.00;;;;5032109;28;20167;-64
2022/07/18 06:55:09;;;;;;;0.08;0.08;;;32.00;82.70;33.50;102182.00;;;;5035522;28;20175;-64
2022/07/18 06:58:30;;;;;;;0.35;0.35;;;31.60;81.90;32.40;102191.00;;;;5035928;28;20186;-63
2022/07/18 07:01:31;;;;;;;0.45;0.40;;;31.40;81.20;33.10;102170.00;;;;5036895;28;20171;-64
2022/07/18 07:04:49;;;;;;;0.10;0.10;;;32.60;80.30;32.90;102191.00;;;;5037068;28;20274;-63
2022/07/18 07:07:50;;;;;;;0.10;0.10;;;32.00;81.10;30.90;102203.00;;;;5035663;28;20179;-63
2022/07/18 07:11:14;;;;;;;0.10;0.10;;;31.20;80.80;28.80;102219.00;;;;5036948;28;20197;-63
2022/07/18 07:14:32;;;;;;;0.10;0.10;;;29.40;83.30;31.50;102200.00;;;;5036700;28;20721;-64
2022/07/18 07:17:38;;;;;;;0.10;0.10;;;29.60;85.00;30.70;102212.00;;;;5036505;28;20650;-63
2022/07/18 07:21:15;;;;;;;0.20;0.20;;;29.40;84.80;33.50;102188.00;;;;5036656;28;20229;-64
2022/07/18 07:24:16;;;;;;;0.10;0.10;;;31.00;84.40;33.20;102194.00;;;;5035278;28;20174;-64
2022/07/18 07:27:40;;;;;;;0.10;0.10;;;31.60;84.10;33.90;102188.00;;;;5036501;28;20187;-64
2022/07/18 07:30:51;;;;;;;0.20;0.20;;;32.60;81.60;32.20;102204.00;;;;5035433;28;20642;-64
2022/07/18 07:34:10;;;;;;;0.10;0.10;;;31.50;82.90;32.30;102194.00;;;;5035087;28;20638;-64
2022/07/18 07:37:30;;;;;;;0.10;0.10;;;30.60;84.50;32.80;102189.00;;;;5036120;28;20217;-64
2022/07/18 07:40:36;;;;;;;0.00;0.00;;;31.20;84.10;33.00;102185.00;;;;5035190;28;20218;-64
2022/07/18 07:44:01;;;;;;;0.30;0.30;;;32.50;82.30;33.30;102190.00;;;;5034686;28;20284;-64
2022/07/18 07:47:09;;;;;;;0.00;0.00;;;32.00;82.40;34.80;102144.00;;;;5036032;28;20203;-64
2022/07/18 07:50:12;;;;;;;0.75;0.70;;;33.50;81.40;34.60;102170.00;;;;5036320;28;20175;-64
2022/07/18 07:53:32;;;;;;;0.00;0.00;;;33.60;80.40;36.70;102151.00;;;;5034889;28;20177;-64
2022/07/18 07:56:53;;;;;;;0.00;0.00;;;34.20;80.70;35.80;102169.00;;;;5035920;28;20175;-64
2022/07/18 08:00:01;;;;;;;0.00;0.00;;;35.30;78.80;33.00;102171.00;;;;5035768;28;20183;-64
2022/07/18 08:03:10;;;;;;;0.10;0.10;;;33.50;78.80;33.20;102180.00;;;;5035662;28;20206;-64
2022/07/18 08:06:14;;;;;;;0.10;0.10;;;33.70;77.90;36.80;102145.00;;;;5033984;28;20183;-64
2022/07/18 08:09:32;;;;;;;0.00;0.00;;;34.50;78.70;34.40;102171.00;;;;5034343;28;20174;-64
2022/07/18 08:12:40;;;;;;;0.03;0.03;;;34.50;76.40;37.00;102157.00;;;;5035759;28;20229;-64
2022/07/18 08:15:44;;;;;;;0.10;0.10;;;34.80;77.20;37.30;102155.00;;;;5034414;28;20660;-64
2022/07/18 08:18:45;;;;;;;0.10;0.10;;;36.40;74.80;33.40;102173.00;;;;5035451;28;20257;-65
2022/07/18 08:21:43;;;;;;;0.00;0.00;;;33.80;75.00;34.50;102170.00;;;;5035210;28;20173;-64
2022/07/18 08:25:01;;;;;;;0.80;0.80;;;33.40;76.10;33.10;102179.00;;;;5031396;28;20190;-64
2022/07/18 08:28:24;;;;;;;0.10;0.10;;;34.20;74.50;34.00;102172.00;;;;5035361;28;20257;-64
2022/07/18 08:31:27;;;;;;;3.92;1.15;;;32.40;78.80;32.10;102182.00;;;;5035604;28;20159;-65
2022/07/18 08:34:35;;;;;;;0.10;0.10;;;32.20;78.00;32.90;102187.00;;;;5034429;28;20175;-64
2022/07/18 08:37:56;;;;;;;0.45;0.30;;;31.10;80.70;32.10;102182.00;;;;5034289;28;20185;-65
2022/07/18 08:41:18;;;;;;;0.43;0.43;;;32.60;78.50;35.00;102158.00;;;;5034008;28;20209;-64
2022/07/18 08:44:20;;;;;;;0.00;0.00;;;32.70;80.60;36.20;102156.00;;;;5035107;28;20186;-64
2022/07/18 08:47:24;;;;;;;0.10;0.10;;;34.20;77.80;36.60;102161.00;;;;5035063;28;20178;-64
2022/07/18 08:50:33;;;;;;;0.10;0.10;;;34.70;76.40;38.70;102135.00;;;;5033734;28;20178;-65
2022/07/18 08:53:25;;;;;;;0.08;0.08;;;36.50;74.60;39.80;102125.00;;;;5033560;28;20634;-63
2022/07/18 08:56:43;;;;;;;0.22;0.22;;;37.90;72.20;39.40;102107.00;;;;5034228;28;20538;-63
2022/07/18 08:59:52;;;;;;;0.00;0.00;;;38.60;69.30;38.10;102143.00;;;;5033573;28;20262;-64
2022/07/18 09:03:13;;;;;;;0.00;0.00;;;37.10;69.40;35.80;102162.00;;;;5034990;28;20211;-64
2022/07/18 09:06:11;;;;;;;0.00;0.00;;;36.40;67.70;38.90;102150.00;;;;5034886;28;20269;-65
2022/07/18 09:09:16;;;;;;;0.30;0.30;;;36.80;68.70;41.00;102139.00;;;;5034946;28;20189;-63
2022/07/18 09:12:25;;;;;;;0.00;0.00;;;38.70;66.30;40.20;102144.00;;;;5034843;28;20265;-63
2022/07/18 09:15:52;;;;;;;0.00;0.00;;;38.50;65.90;40.20;102130.00;;;;5034458;28;20185;-63
2022/07/18 09:18:44;;;;;;;0.10;0.10;;;38.70;63.50;38.40;102157.00;;;;5032945;28;20222;-63
2022/07/18 09:21:55;;;;;;;0.10;0.10;;;38.30;62.50;35.60;102166.00;;;;5034457;28;20170;-65
2022/07/18 09:24:57;;;;;;;0.10;0.10;;;37.30;61.40;36.40;102167.00;;;;5033080;28;20186;-65
2022/07/18 09:27:48;;;;;;;6.60;1.60;;;35.70;63.10;36.40;102178.00;;;;5033080;28;20182;-65
2022/07/18 09:30:52;;;;;;;0.38;0.38;;;36.00;63.60;33.50;102186.00;;;;5033364;28;20171;-65
2022/07/18 09:33:52;;;;;;;0.35;0.35;;;34.00;65.10;34.20;102180.00;;;;5034291;28;20197;-64
2022/07/18 09:36:56;;;;;;;0.10;0.10;;;33.60;65.00;35.80;102174.00;;;;5033067;28;20195;-65
2022/07/18 09:40:18;;;;;;;0.10;0.10;;;34.70;64.50;38.10;102161.00;;;;5032686;28;20182;-65
2022/07/18 09:43:23;;;;;;;0.00;0.00;;;35.80;63.30;36.60;102181.00;;;;5033829;28;20194;-63
2022/07/18 09:46:29;;;;;;;1.17;1.15;;;37.30;61.40;35.00;102181.00;;;;5032297;28;20187;-65
2022/07/18 09:49:57;;;;;;;3.60;1.25;;;35.10;62.20;33.00;102177.00;;;;5032513;28;20543;-65
2022/07/18 09:53:19;;;;;;;0.10;0.10;;;33.40;64.10;34.20;102183.00;;;;5034028;28;20656;-64
2022/07/18 09:56:14;;;;;;;0.05;0.05;;;32.60;65.70;34.00;102178.00;;;;5032515;28;20285;-65
2022/07/18 09:59:47;;;;;;;0.50;0.50;;;33.50;63.80;34.60;102164.00;;;;5032697;28;20179;-65
2022/07/18 10:03:00;;;;;;;6.93;0.40;;;33.60;64.30;33.50;102156.00;;;;5024633;28;20212;-65
2022/07/18 10:06:11;;;;;;;0.10;0.10;;;33.20;66.00;35.90;102168.00;;;;5032211;28;20223;-65
2022/07/18 10:09:14;;;;;;;0.00;0.00;;;34.70;65.70;37.10;102135.00;;;;5032033;28;20221;-65
2022/07/18 10:12:35;;;;;;;0.10;0.10;;;36.00;64.20;35.90;102134.00;;;;5032169;28;20179;-65
2022/07/18 10:15:44;;;;;;;0.00;0.00;;;35.00;62.30;37.30;102158.00;;;;5033742;28;20646;-65
2022/07/18 10:18:50;;;;;;;0.20;0.20;;;35.40;64.60;34.80;102164.00;;;;5032202;28;20179;-65
2022/07/18 10:33:54;;;;;;;0.10;0.10;;;35.50;62.60;36.60;102156.00;;;;5070422;28;20570;-65
2022/07/18 10:36:22;;;;;;;0.57;0.55;;;35.80;62.70;38.90;102130.00;;;;5020623;28;20213;-64
2022/07/18 10:39:23;;;;;;;0.30;0.30;;;36.90;61.40;37.80;102150.00;;;;5045571;28;20221;-70
2022/07/18 10:42:10;;;;;;;0.35;0.35;;;36.70;60.30;37.20;102153.00;;;;5029402;28;20179;-76
2022/07/18 10:45:00;;;;;;;0.10;0.10;;;36.40;60.40;34.90;102153.00;;;;5037591;28;20239;-76
2022/07/18 10:48:29;;;;;;;0.00;0.00;;;35.40;60.50;39.00;102135.00;;;;5050404;28;20187;-75
2022/07/18 10:51:25;;;;;;;0.00;0.00;;;36.60;60.90;39.00;102142.00;;;;5034343;28;20194;-75
2022/07/18 10:54:18;;;;;;;0.10;0.10;;;37.80;59.20;38.10;102143.00;;;;5042606;28;20672;-72
2022/07/18 10:57:03;;;;;;;0.00;0.00;;;37.10;59.40;41.10;102126.00;;;;5048882;28;20599;-75
2022/07/18 11:00:17;;;;;;;0.10;0.10;;;38.80;58.40;41.80;102130.00;;;;5046713;28;20216;-73
2022/07/18 11:02:49;;;;;;;0.10;0.10;;;39.90;57.20;37.00;102154.00;;;;5031861;28;20194;-74
2022/07/18 11:05:51;;;;;;;0.00;0.00;;;38.60;57.00;37.80;102137.00;;;;5033818;28;20650;-73
2022/07/18 11:08:42;;;;;;;0.00;0.00;;;37.10;58.50;37.70;102137.00;;;;5012541;28;20224;-73
2022/07/18 11:11:33;;;;;;;0.00;0.00;;;37.60;57.40;39.50;102131.00;;;;5049771;28;20206;-73
2022/07/18 11:15:02;;;;;;;0.10;0.10;;;38.40;57.90;36.60;102149.00;;;;5032162;28;20224;-73
2022/07/18 11:18:09;;;;;;;0.10;0.10;;;36.00;59.00;33.90;102148.00;;;;5048402;28;20629;-73
2022/07/18 11:20:47;;;;;;;0.63;0.63;;;33.80;59.70;37.00;102133.00;;;;5032011;28;20216;-73
2022/07/18 11:23:28;;;;;;;0.10;0.10;;;35.20;59.80;38.60;102114.00;;;;5048500;28;20197;-73
2022/07/18 11:26:03;;;;;;;0.20;0.20;;;36.90;58.10;39.00;102133.00;;;;5029013;28;20179;-74
2022/07/18 11:29:11;;;;;;;0.00;0.00;;;38.20;57.30;39.80;102120.00;;;;5012573;28;20221;-74
2022/07/18 11:31:52;;;;;;;0.10;0.10;;;38.20;57.50;40.20;102114.00;;;;5033981;28;20744;-74
2022/07/18 11:34:21;;;;;;;0.00;0.00;;;38.90;56.70;41.80;102071.00;;;;5048564;28;20277;-74
2022/07/18 11:36:51;;;;;;;0.00;0.00;;;40.30;55.60;40.40;102104.00;;;;5031418;28;20186;-74
2022/07/18 11:39:36;;;;;;;0.10;0.10;;;39.80;55.40;41.10;102100.00;;;;5048173;28;20178;-74
2022/07/18 11:42:04;;;;;;;0.00;0.00;;;40.20;55.40;39.00;102101.00;;;;5031569;28;20215;-74
2022/07/18 11:44:34;;;;;;;0.00;0.00;;;39.30;54.70;40.50;102101.00;;;;5035367;28;20626;-74
2022/07/18 11:47:22;;;;;;;0.65;0.60;;;39.70;55.30;38.00;102076.00;;;;5034731;28;20205;-74
2022/07/18 11:50:02;;;;;;;0.00;0.00;;;38.80;55.40;38.90;102103.00;;;;5034774;28;20265;-74
2022/07/18 11:52:45;;;;;;;0.10;0.10;;;38.20;57.00;40.40;102100.00;;;;5018367;28;20630;-73
2022/07/18 11:56:16;;;;;;;0.00;0.00;;;38.90;56.70;40.50;102092.00;;;;5028181;28;20197;-74
2022/07/18 11:59:26;;;;;;;0.00;0.00;;;39.00;55.50;40.70;102099.00;;;;5034521;28;20214;-72
2022/07/18 12:02:18;;;;;;;0.10;0.10;;;39.70;54.80;38.20;102107.00;;;;5013556;28;20202;-72
2022/07/18 12:06:08;;;;;;;0.03;0.03;;;37.50;55.80;35.40;102109.00;;;;5051293;28;20539;-72
2022/07/18 12:09:06;;;;;;;0.00;0.00;;;36.40;56.00;37.10;102088.00;;;;5040804;28;20187;-72
2022/07/18 12:12:14;;;;;;;0.10;0.10;;;35.60;57.30;37.30;102085.00;;;;5019009;28;20612;-72
2022/07/18 12:15:19;;;;;;;0.10;0.10;;;35.80;57.10;36.00;102087.00;;;;5067690;28;20175;-71
2022/07/18 12:18:28;;;;;;;0.22;0.22;;;35.60;57.90;35.40;102089.00;;;;5033747;28;20521;-72
2022/07/18 12:22:02;;;;;;;0.32;0.32;;;34.80;56.80;35.90;102083.00;;;;5034379;28;20174;-72
2022/07/18 12:24:59;;;;;;;0.20;0.20;;;34.80;57.40;36.00;102093.00;;;;5052940;28;20197;-72
2022/07/18 12:30:32;;;;;;;0.75;0.75;;;34.80;57.00;35.80;102084.00;;;;5052910;28;20565;-72
2022/07/18 12:33:37;;;;;;;0.20;0.20;;;34.80;57.10;36.40;102073.00;;;;5052360;28;20701;-72
2022/07/18 12:36:59;;;;;;;0.10;0.10;;;34.90;56.70;34.90;102082.00;;;;5036076;28;20762;-72
2022/07/18 12:40:11;;;;;;;0.10;0.10;;;34.60;56.60;35.40;102077.00;;;;5052784;28;20166;-72
2022/07/18 12:43:13;;;;;;;0.08;0.08;;;34.30;56.80;36.50;102050.00;;;;5052530;28;20639;-72
2022/07/18 12:46:34;;;;;;;0.20;0.20;;;34.80;56.70;35.50;102067.00;;;;5042186;28;20191;-72
2022/07/18 12:49:40;;;;;;;0.10;0.10;;;34.40;56.70;35.60;102073.00;;;;5029099;28;20198;-71
2022/07/18 12:52:50;;;;;;;0.10;0.10;;;34.10;56.50;34.60;102078.00;;;;5016986;28;20222;-72
2022/07/18 12:55:40;;;;;;;0.10;0.10;;;34.10;56.80;35.00;102032.00;;;;5012648;28;20270;-72
2022/07/18 12:58:50;;;;;;;0.10;0.10;;;33.80;57.50;34.80;102071.00;;;;5013706;28;20215;-71
2022/07/18 13:02:09;;;;;;;0.10;0.10;;;33.70;57.30;34.70;102072.00;;;;5013531;28;20191;-71
2022/07/18 13:05:17;;;;;;;0.22;0.20;;;33.60;57.60;35.00;102067.00;;;;5013601;28;20267;-72
2022/07/18 13:08:23;;;;;;;0.10;0.10;;;33.50;57.80;35.20;102055.00;;;;5014679;28;20207;-72
2022/07/18 13:11:26;;;;;;;0.10;0.10;;;33.90;57.20;34.80;102058.00;;;;4997692;28;20191;-71
2022/07/18 13:14:50;;;;;;;0.17;0.17;;;34.00;56.60;35.70;102051.00;;;;5013322;28;20187;-72
2022/07/18 13:17:58;;;;;;;0.10;0.10;;;34.10;56.90;35.40;102050.00;;;;5014578;28;20281;-72
2022/07/18 13:21:01;;;;;;;0.00;0.00;;;34.20;56.40;36.40;102034.00;;;;5013579;28;20175;-72
2022/07/18 13:24:14;;;;;;;0.10;0.10;;;34.40;56.40;36.10;102044.00;;;;5014744;28;20174;-72
2022/07/18 13:27:15;;;;;;;0.55;0.30;;;34.90;56.00;36.10;102021.00;;;;5002172;28;20187;-72
2022/07/18 13:30:28;;;;;;;0.82;0.82;;;34.60;55.20;34.80;102042.00;;;;5013236;28;20183;-71
2022/07/18 13:33:35;;;;;;;0.10;0.10;;;33.90;55.70;35.40;102030.00;;;;5012677;28;20305;-71
2022/07/18 13:36:43;;;;;;;0.10;0.10;;;33.90;56.20;36.00;102028.00;;;;5013077;28;20176;-71
2022/07/18 13:39:46;;;;;;;0.10;0.10;;;34.30;55.60;35.10;102007.00;;;;5013090;28;20215;-71
2022/07/18 13:42:53;;;;;;;0.10;0.10;;;34.20;56.20;35.30;102031.00;;;;4996714;28;20217;-71
2022/07/18 13:46:12;;;;;;;0.10;0.10;;;34.00;56.40;35.80;102024.00;;;;5013997;28;20179;-71
2022/07/18 13:49:13;;;;;;;0.10;0.10;;;34.40;56.30;35.50;102031.00;;;;5012858;28;20275;-72
2022/07/18 13:52:31;;;;;;;0.10;0.10;;;34.10;56.40;36.50;102012.00;;;;4996753;28;20214;-71
2022/07/18 13:55:50;;;;;;;0.40;0.40;;;34.60;55.80;35.20;102016.00;;;;5012452;28;20226;-71
2022/07/18 13:59:15;;;;;;;0.10;0.10;;;34.40;54.60;36.00;101982.00;;;;5014013;28;20259;-71
2022/07/18 14:02:39;;;;;;;1.35;1.35;;;34.40;55.10;34.90;102020.00;;;;5013902;28;20289;-71
2022/07/18 14:05:46;;;;;;;0.10;0.10;;;34.00;54.50;35.10;102010.00;;;;5029404;28;20184;-71
2022/07/18 14:09:07;;;;;;;0.10;0.10;;;33.90;54.20;34.90;102001.00;;;;5012307;28;20185;-71
2022/07/18 14:12:34;;;;;;;0.10;0.10;;;33.60;54.40;34.90;102000.00;;;;5012409;28;20206;-71
2022/07/18 14:15:55;;;;;;;0.10;0.10;;;33.90;54.40;35.40;101987.00;;;;5013814;28;20186;-71
2022/07/18 14:19:19;;;;;;;0.10;0.10;;;33.70;54.80;35.10;101996.00;;;;5012380;28;20190;-71
2022/07/18 14:22:46;;;;;;;0.10;0.10;;;33.90;54.30;35.40;101968.00;;;;5013601;28;20183;-71
2022/07/18 14:26:13;;;;;;;0.20;0.20;;;33.90;53.20;34.90;101992.00;;;;5013353;28;20180;-71
2022/07/18 14:29:33;;;;;;;0.10;0.10;;;34.10;54.20;35.80;101983.00;;;;5013573;28;20180;-72
2022/07/18 14:32:57;;;;;;;0.80;0.60;;;34.00;54.60;35.90;101983.00;;;;5013272;28;20239;-71